River Falls, WI (54022)

7:50 PM CDT on September 04, 2015 (GMT -0500)
Sterling Ponds | | Change Station
CLOSE
Current Station
Personal Weather Station
Location: River Falls, WI
Elevation: 925 ft
Nearby Weather Stations

Elev 925 ft 44.89 °N, 92.64 °W | Updated 11 seconds ago

Clear
Clear
80.6 °F
Feels Like 86 °F
N
0.0
Wind Variable Wind from SSE
Gusts 2.0 mph

Today
High -- | Low -- °F
--% Chance of Precip.
Yesterday
High -- | Low -- °F
Precip. -- in
6:35 AM 7:42 PM
Waning Gibbous, 54% visible
Pressure 29.93 in
Visibility 7.0 miles
Clouds Scattered Clouds 4400 ft
Heat Index 86 °F
Dew Point 75 °F
Humidity 83%
Rainfall 0.00 in
Snow Depth Not available.
UV 0 out of 12
Pollen 9.10 out of 12
Air Quality Not available.
Flu Activity Not available.
METAR K21D 050035Z AUTO 12005KT 7SM SCT044 27/23 A2993 RMK AO2
Pressure 29.93 in
Visibility 7.0 miles
Clouds Scattered Clouds 4400 ft
Heat Index 86 °F
Dew Point 75 °F
Humidity 83%
Rainfall 0.00 in
Snow Depth Not available.
UV 0 out of 12
Pollen 9.10 out of 12
Air Quality Not available.
Flu Activity Not available.
METAR K21D 050035Z AUTO 12005KT 7SM SCT044 27/23 A2993 RMK AO2

10-Day Weather Forecast

×

Almanac

Astronomy

Sep. 04, 2015 Rise Set
Actual Time
Civil Twilight
Nautical Twilight
Astronomical Twilight
Moon
Length of Visible Light
Length of Day
Tomorrow will be .
, % of the Moon is Illuminated

Today's Extremes

State Highs State Lows

Community

WunderPhotos

Upload Photos

1,852,367 photos uploaded!

WunderBlogs® & News

Nearby

Air Quality

  Air Quality AQ Index Pollutant
Not available.

Snow Depth

Station Depth Elevation

Earthquake Activity

City Distance Mag. Time & Date
Minimum magnitude displayed is 2.5.

Coastal Water Temperatures

Place Temperature

Stations

Nearby Weather Stations

Station Location Temp. Windchill Dew Point Humidity Wind Precip. Elev Updated Type